Timeline UpdatesTrip UpdatesNews PostsPvt Posts♥♥Travel TipsAdmin PostsConv PostsFollowed PostsChat RequestsBlog PostsPNR Posts

Disclaimer
Search
 
 
Sun Oct 26, 2014 05:06:55 ISTHomeTrainsΣChainsAtlasPNRForumGalleryNewsFAQTripsMembersLoginFeedback
No Recent News for this Train
Other Trains in the News **new
Latest...
One Sleeper and unreserved coach for Mumbai is attached from Nandurbar. These coaches are attached to 59442 Ahmedabad Mumbai passenger at Surat.
Mon Apr 18, 2011 (09:18PM)
⇐ Return Journey: Train# 59441-Slip

59076-Slip/Bhusaval -Mumbai Passenger Slip(Via Surat)

Time-Table HAS CHANGED.
Sep 04 2014 (10:12PM)
Change Departure Station:
Change Arrival Station:
Post a Train Travel TipPost a Train Travel Tip **new
Post a Comment/Question/Picture/VideoPost a Comment/Question/Picture/Video
Pantry/Catering
???
Loco/Rake Reversals
ST/Surat (4);
RSA - Rake Sharing
Rake/Coach Composition
Loco
News    PNR    Forum    Time-Table    Availability    Fare Chart    Map    Arr/Dep History    Trips    Gallery    ΣChains    X/O    Timeline    
Travel Time: 3h 35m    14 halts    Distance: 115 km    Avg Speed: 32 km/hr
Type: Passenger
Zone: WR/Western
Departs @ 14:30 (Avg 6m late)
Platform# ???
SMTWTFS
Nandurbar/NDB 
Arrives @ 18:05 (Avg 14m late)
Platform# 1
SMTWTFS
Madhi/MID 

14 halts. 15 intermediate Stations between Nandurbar and Madhi

Hide intermediate Stations  Show Old Time-Table

#TrkCodeStation NameX/OArrivesAvgDepartsAvgHaltPFDay#KmSpeedElevZoneAddress
1/==/BSLBhusaval Junction (8)  -08:45+20--1-174.158208mCRBhusaval 425201, Maharashtra
2/==/BDIBhadli (2)  08:58+2709:00+262m--1-161.530211mCRBhadli, Maharashtra
2.1/==/TRWTarsodXO  09:14-09:14-  1-154.7 30206mCRAsoda - Tarsod Road, Maharashtra
3/==/JLJalgaon Junction (4)  09:23+2809:25+282m21-150.037213mCRJalgaon 425001, Maharashtra
4%==%PLDPaldhi (2)  09:43+2109:45+222m--1-138.953208mWRPaldhi, Maharashtra
5%==%CHLKChavalkhedeX  09:58+2310:00+252m--1-127.427196mWRState Highway 185, Maharashtra
6%==/DXGDharangaon (2)  10:16+2110:18+212m--1-120.257217mWRDharangaon, Maharashtra
7/==/BHNEBhone (2)X  10:26-10:28-2m--1-112.650196mWRState Highway 185, Maharashtra
8/==/TKHETakarkhede (1)  10:35+1910:37+192m11-106.843203mWRState Highway 6, Maharashtra
9/==%ANAmalner (2)  10:53+1710:55+182m11-95.340188mWRAmalner, Maharashtra
10%==%BRTKBhortex  11:07+1811:09+182m--1-87.353180mWRVadhoda, Maharashtra
11%==%PDPPadse  11:18+1811:20+182m--1-79.448181mWRDhule, Maharashtra
12%==%BEWBetavad (1)  11:27-11:29-2m11-73.858178mWRState Highway 6, Maharashtra
13%==%NDNNardana (1)  11:36+2111:38+202m11-67.042184mWRNardana, Maharashtra
14%==%HOLHol (1)  11:45+2011:47+192m11-62.163185mWRState Highway 6, Maharashtra
15%==%SNKSindkheda (1)X  11:55+2211:57+242m11-53.843178mWRState Highway 11, Maharashtra
16%==%SNSLSonshelu (1)  12:06-12:08-2m11-47.348185mWRMSH1, Maharashtra
17%==%VKHVikhran (1)X  12:14+2212:16+262m11-42.533176mWRMSH1, Maharashtra
18%=-/DDEDondaicha (2)  12:31+2212:33+222m11-34.455163mWRDondaicha, Maharashtra
19/--/RNLRanala (1)X  12:46+2112:48+272m11-22.433164mWRState Highway 6, Maharashtra
20/--/TISITisi (1)  13:05+1913:07+202m11-12.931185mWRState Highway 7, Maharashtra
21/-=%CUEChoupale (1) new halt!!X  13:22+913:24+152m--1-5.115208mWRNehru Nagar, Maharashtra
22/-=%NDBNandurbar (3)»XO  13:45+514:30+645m--10.060203mWRNandurbar, Maharashtra
23%==%DWDDhekwad (1)  14:39+1114:41+112m119.048209mWRState Highway 5, Maharashtra
23.1%==%BAWDBhadwad (1)  14:50-14:50-  115.9 48212mWRBhadwad, Maharashtra
24%==%KBHKhandbara (1)X  14:58+2115:00+212m1122.653198mWRKhandbara, Maharashtra
25%==%KHTGKhatgaon (1)  15:10+2215:12+222m1131.453178mWRState Highway 5, Maharashtra
26%==/CPDChinchpada (1)  15:23+2415:25+332m1141.248178mWRGangapur, Maharashtra
27/==/KFFKolda (1)  15:33+3415:35+332m1147.539160mWRGangapur, Maharashtra
28/==/NWUNavapur (2)  15:51+2715:53+272m--157.955124mWRNavapur, Gujarat
29/==/BBAIBhadbhunja (1)  16:05+3016:07+292m1169.025126mWRGujarat 394375 ?, Gujarat
30/==/LKKDLakkad Kot (1)  16:19+2716:21+302m1173.936122mWRGujarat 394375 ?, Gujarat
31/==/USDUkai Songadh (2)  16:33+3016:35+462m1181.239139mWRSongadh, Gujarat
32/==/DSDDosvada (1)  16:42-16:44-2m1185.717121mWRNational Highway 6, Gujarat
33/==/KKRDKikakui Road (1)O  16:53+4116:55+412m1188.316114mWRGujarat 394650 ?, Gujarat
34/==%VYAVyara (2)  17:38+1117:40+142m1199.84390mWRVyara, Gujarat
35%==%LTVLotarva (1)  17:49+1617:51+152m11106.34657mWRSankr Main Rd, Gujarat
36%==%KRAIKaher (1)X  17:55-17:57-2m11109.44055mWRKaher, Gujarat
37%==%MIDMadhi (1)•  18:05+1418:07+192m11114.83245mWRMadhi, Gujarat
38%==%MGRLMangrolla (1)  18:17-18:19-2m11120.13336mWRPipariya, Gujarat
39%==%TBVTimbarva (1)  18:24+1518:26+152m11122.83435mWRTimberva, Gujarat
40%==%BIYBardoli (2)  18:38+1318:40+232m--1129.62135mWRNear Bardoli Sugar Factory Bardoli, Gujarat
41%==%GGARGangadhara (1)X  18:58+1619:00+232m11135.81527mWRKareli, Gujarat
42%==%BGMRBagumra (1) new halt!!  19:21-19:23-2m--1140.94422mWRNational Highway 6, Gujarat
43%==%CHMChalthan (1)  19:29+719:31+62m11145.35023mWRKadodra, Gujarat
44%==%NOLNiyol (1)  19:37-19:39-2m11150.32818mWRSurat, Gujarat
45/==%UDNUdhna Junction (3) new halt!!XO  19:53-19:55-2m21156.81616mWRUdhna 394210, Gujarat
46/==/STSurat (4)XOO20:10+221:30+2:3080m41160.83819mWRSurat 395001, Gujarat
46.1/==/UDNUdhna Junction (3)  21:36-21:36-  1164.8 3816mWRUdhna 394210, Gujarat
47/==/BHETBhestan (2)X  21:44-21:46-2m21169.64913mWRSurat, Gujarat
48/==/SCHSachin (3)XO  21:53-21:55-2m--1175.36611mWRKansad Road Sachin, Gujarat
49/==/MRLMaroli (3)  22:01-22:03-2m--1182.06315mWRMaroli, Gujarat
50/==/NVSNavsari (3)X  22:11-22:13-2m--1190.44614mWRNavsari, Gujarat
50.1/==/GNSTGandhi Smriti (2)O  22:17-22:17-  1193.4 4616mWRGandhi Smriti Navsari, Gujarat
50.2/==/HXRHansapore (2)X  22:19-22:19-  1195.0 4615mWRHansapore, Gujarat
51/==/VDHVedchha (3)XO  22:24-22:26-2m--1198.95113mWRNavsari, Gujarat
52/==/ACLAncheli (2)X  22:30-22:32-2m--1202.24620mWRNavsari, Gujarat
53/==/AMLAmalsad (3)  22:37-22:39-2m--1206.05612mWRAmalsad, Gujarat
54/==/BIMBilimora Junction (4)O  22:45-22:47-2m--1211.66811mWRBilimora, Gujarat
54.1/==/JRSJoravasan (2)X  22:50-22:50-  1215.6 6815mWRJoravasan, Gujarat
55/==/DGIDungri (3)X  22:55-22:57-2m--1220.62320mWRNH 8, Gujarat
56/==/BLValsad (3)X  23:20-23:30-10m31229.56415mWRValsad, Gujarat
56.1/==/ATULAtul (3)  23:36-23:36-  1236.2 6422mWRValsad, Gujarat
57/==/PADPardi (3)X  23:40-23:42-2m--1240.26019mWRValsad, Gujarat
58/==/UVDUdvada (3)  23:48-23:50-2m--1246.25218mWRUdvada, Gujarat
58.1/==/BAGDBagwada (2)  23:53-23:53-  1249.1 5222mWRNH8, Gujarat
59/==/VAPIVapi (3)XO  00:01-00:02-1m--2255.84827mWRVapi, Gujarat
60/==/KEBKarambeli (2)X  00:10-00:11-1m--2262.24829mWRNational Highway 8, Gujarat
61/==/BLDBhilad (3)X  00:17-00:19-2m--2267.06933mWRBhilad, Gujarat
62/==/SJNSanjan (3)X  00:29-00:31-2m--2278.65422mWRSanjan, Gujarat
63/==/UBRUmbargam Road (3)X  00:37-00:39-2m--2284.06130mWRUmbergaon, Gujarat
63.1/==/BRRDBordi Road (2)XO  00:43-00:43-  2288.2 6117mWRBordi, Maharashtra
64/==/GVDGholvad (4)XO  00:48-00:50-2m--2293.24214mWRGholvad, Maharashtra
65/==/DRDDahanu Road (5)XO  01:06-01:08-2m--2304.35712mWRDahanu, Maharashtra
66/==/VGNVangaon (3)XO  01:21-01:23-2m--2316.66311mWRDist. Palghar, Maharashtra
67/==/BORBoisar (3)X  01:32-01:34-2m32326.04817mWRBoisar Tel.no-02525-266626, Maharashtra
67.1/==/UOIUmroli (2)XO  01:40-01:40-  2330.9 488mWRBoisar, Maharashtra
68/==/PLGPalghar (3)X  01:48-01:50-2m--2337.34619mWRPalghar, Maharashtra
69/==/KLVKelve Road (3)O  02:01-02:03-2m--2345.74310mWRDist. Palghar, Maharashtra
70/==/SAHSaphale (2)O  02:12-02:14-2m22352.1348mWRDist. Palghar, Maharashtra
70.1/==/VTNVaitarna (2)  02:28-02:28-  2359.9 343mWRDist. Palghar, Maharashtra
71/==/VRVirar (8)  02:43-02:45-2m--2368.4286mWRDist. Palghar, Maharashtra
71.1/==/NSPNallasopara (4)O  02:54-02:54-  2372.6 285mWRNallasopara station Rd, Maharashtra
72/==/BSRVasai Road (7)  03:03-03:05-2m52376.8587mWRVasai 401202, Maharashtra
72.1/==/NIGNaigaon (4)  03:09-03:09-  2380.6 585mWRNaigaon West, Maharashtra
72.2/==/BYRBhayandar (6)  03:14-03:14-  2385.2 586mWRThane, Maharashtra
72.3/==/MIRAMira Road (4)  03:17-03:17-  2388.5 583mWRMira Bhayandar, Maharashtra
72.4/==/DICDahisar (4)  03:21-03:21-  2391.9 5814mWRMumbai, Maharashtra
73/==/BVIMumbai Borivali (8)  03:23-03:25-2m52394.23719mWRMumbai - 400092, Maharashtra
73.1/==/KILEKandivli (4)  03:29-03:29-  2397.0 3714mWRMumbai, Maharashtra
73.2/==/MDDMalad (4)O  03:33-03:33-  2399.1 3718mWRMumbai-400064, Maharashtra
73.3/==/GMNGoregaon (5)  03:37-03:37-  2401.5 3715mWRMumbai - 400104, Maharashtra
73.4/==/JOSJogeshwari (4)  03:42-03:42-  2404.6 3714mWRMumbai, Maharashtra
73.5/==/ADHMumbai Andheri (9)  03:45-03:45-  2406.8 3712mWRMumbai, Maharashtra
73.6/==/VLPVille Parle (6)  03:48-03:48-  2408.8 3711mWRMumbai, Maharashtra
73.7/==/STCSanta Cruz (6)O  03:51-03:51-  2410.7 3710mWRMumbai, Maharashtra
73.8/==/KHARKhar (6)  03:54-03:54-  2412.1 377mWRMumbai, Maharashtra
73.9/==/BDTSMumbai Bandra Terminus (5)  03:55-03:55-  2413.0 374mWRMumbai 400050, Maharashtra
73.10/==/BABandra (7)O  03:56-03:56-  2413.8 376mWRMumbai, Maharashtra
73.11/==/MMMumbai Mahim Junction (6)  03:59-03:59-  2415.5 375mWRMumbai, Maharashtra
73.12/==/MRUMumbai Matunga Road (2)  04:01-04:01-  2416.7 377mWRMumbai, Maharashtra
74/==/DDRMumbai Dadar Western (6)  04:03-04:05-2m52418.0126mWRMumbai, Maharashtra
74.1/==/EPRMumbai Elphinstone Road (2)  04:13-04:13-  2419.5 124mWRMumbai, Maharashtra
74.2/==/PLMumbai Lower Parel (3)  04:20-04:20-  2421.0 125mWRMumbai, Maharashtra
74.3/==/MXMumbai Mahalakshmi (2)  04:28-04:28-  2422.6 123mWRMumbai, Maharashtra
75/==/BCTMumbai Central (9)  04:35--52423.9-3mWRMumbai 400008, Maharashtra
Scroll to Top
Scroll to Bottom